map of BWE home
Great Circle Mapper logo
BWE - Airport
Location
City:  Braunschweig, Lower Saxony, Germany
Name:Braunschweig-Wolfsburg Airport
ICAO / IATA:EDVE / BWE

Details
Type:Airport (Flugplatz, Airfield)
Use:Public/Civil
Latitude:5219'09"N (52.319167)
Longitude:1033'22"E (10.556111)
Elevation:295 ft (90 m)
Runways:2
Longest:7546 × 148 ft (2300 × 45 m), paved

Time
Time Zone:UTC+1 (DST+2)
Local Time:

Weather
METAR:EDVE 201950Z 24005KT 9999 FEW045 BKN065 OVC079 13/12 Q1013

Related Locations
Nearby:
Farthest:CHT: 11761 mi / 18928 km
Waitangi [Tuuta], Chatham Islands, NZ

Find:

   beyond  
but within

Other Information
Maps:
NOTAMs:
Links:
Sources:

  
flag of Germany
flag of Lower Saxony
  

Sectional Chart

Flight Planning
at skyvector.com

Satellite Image

Google Maps Satellite View

 

Copyright © 2004-2014 Karl L. Swartz. All rights reserved.
The Great Circle Mapper name and logo are trademarks of the Great Circle Mapper.
All other trademarks mentioned herein belong to their respective owners.
Please see credits for attibutions and further copyright information.

  Follow gcmap on Facebook Follow gcmap on Twitter

hCard Microformat

Geo Microformat